Time;durP1;ratioP1;P1;durP2;ratioP2;P2;SDS_P1;SDS_P2;PMS_P1;PMS_P2;Temp;Humidity;BMP_temperature;BMP_pressure;BME280_temperature;BME280_humidity;BME280_pressure;Samples;Min_cycle;Max_cycle;Signal;HPM_P1;HPM_P2
2023/04/01 00:03:33;;;;;;;7.32;5.90;;;;;;;;;;10186197;28;20055;-72
2023/04/01 00:08:28;;;;;;;7.93;5.47;;;;;;;;;;10186118;28;20397;-72
2023/04/01 00:13:23;;;;;;;7.65;5.28;;;;;;;;;;10185536;28;20043;-72
2023/04/01 00:18:17;;;;;;;5.47;4.97;;;;;;;;;;10185391;28;20072;-72
2023/04/01 00:23:12;;;;;;;7.40;5.32;;;;;;;;;;10186536;28;20160;-72
2023/04/01 00:28:05;;;;;;;9.75;6.28;;;;;;;;;;10186043;28;20044;-72
2023/04/01 00:32:59;;;;;;;15.05;9.55;;;;;;;;;;10185729;28;20040;-72
2023/04/01 00:37:53;;;;;;;12.13;9.70;;;;;;;;;;10175981;28;20040;-72
2023/04/01 00:42:46;;;;;;;10.13;7.35;;;;;;;;;;10160412;28;20052;-71
2023/04/01 00:47:39;;;;;;;13.32;7.88;;;;;;;;;;10171755;28;20559;-72
2023/04/01 00:52:32;;;;;;;9.75;8.75;;;;;;;;;;10184756;28;20067;-72
2023/04/01 00:57:31;;;;;;;9.95;7.50;;;;;;;;;;10182197;28;20559;-72
2023/04/01 01:02:24;;;;;;;10.75;6.53;;;;;;;;;;10182019;28;20420;-72
2023/04/01 01:07:39;;;;;;;8.18;6.93;;;;;;;;;;10176926;28;20051;-72
2023/04/01 01:12:45;;;;;;;11.07;7.82;;;;;;;;;;10185920;28;20561;-71
2023/04/01 01:18:02;;;;;;;11.43;8.65;;;;;;;;;;10172018;28;20055;-71
2023/04/01 01:23:32;;;;;;;9.27;7.55;;;;;;;;;;10185646;28;20454;-72
2023/04/01 01:28:33;;;;;;;10.88;7.90;;;;;;;;;;10170861;28;20079;-72
2023/04/01 01:33:33;;;;;;;12.13;10.82;;;;;;;;;;10167210;28;20063;-71
2023/04/01 01:38:29;;;;;;;12.27;10.13;;;;;;;;;;10185025;28;20397;-71
2023/04/01 01:43:36;;;;;;;18.83;12.38;;;;;;;;;;10152581;28;20134;-71
2023/04/01 01:48:32;;;;;;;19.92;12.93;;;;;;;;;;10163028;28;20099;-71
2023/04/01 01:53:25;;;;;;;15.63;12.73;;;;;;;;;;10171731;28;20500;-71
2023/04/01 01:58:21;;;;;;;12.80;10.45;;;;;;;;;;10175463;28;20040;-71
2023/04/01 02:03:14;;;;;;;12.77;10.93;;;;;;;;;;10188121;28;20079;-71
2023/04/01 02:08:12;;;;;;;15.13;11.23;;;;;;;;;;10189485;28;20067;-71
2023/04/01 02:13:09;;;;;;;17.55;11.02;;;;;;;;;;10189604;28;20404;-72
2023/04/01 02:18:04;;;;;;;15.68;12.50;;;;;;;;;;10190891;28;20121;-71
2023/04/01 02:22:59;;;;;;;17.63;13.73;;;;;;;;;;10190798;28;20074;-71
2023/04/01 02:27:53;;;;;;;18.02;13.85;;;;;;;;;;10190925;28;20551;-72
2023/04/01 02:32:46;;;;;;;22.85;14.55;;;;;;;;;;10189711;28;20048;-72
2023/04/01 02:37:43;;;;;;;20.38;13.48;;;;;;;;;;10158770;28;20098;-72
2023/04/01 02:42:36;;;;;;;19.98;14.40;;;;;;;;;;10167320;28;20055;-72
2023/04/01 02:47:29;;;;;;;20.95;15.32;;;;;;;;;;10176881;28;20052;-72
2023/04/01 02:52:23;;;;;;;25.38;14.77;;;;;;;;;;10188900;28;20052;-72
2023/04/01 02:57:16;;;;;;;21.92;15.40;;;;;;;;;;10187970;28;20051;-72
2023/04/01 03:02:10;;;;;;;25.55;18.65;;;;;;;;;;10189252;28;20052;-72
2023/04/01 03:07:03;;;;;;;31.83;17.05;;;;;;;;;;10188587;28;20040;-72
2023/04/01 03:11:57;;;;;;;25.40;17.35;;;;;;;;;;10178409;28;20051;-72
2023/04/01 03:16:51;;;;;;;27.27;18.35;;;;;;;;;;10179708;28;20505;-72
2023/04/01 03:21:46;;;;;;;32.42;19.58;;;;;;;;;;10178447;28;20050;-72
2023/04/01 03:26:42;;;;;;;30.48;20.13;;;;;;;;;;10170254;28;20099;-72
2023/04/01 03:31:36;;;;;;;25.70;19.80;;;;;;;;;;10175930;28;20477;-73
2023/04/01 03:36:29;;;;;;;32.20;19.13;;;;;;;;;;10170811;28;20072;-72
2023/04/01 03:41:22;;;;;;;20.95;16.27;;;;;;;;;;10170542;28;20051;-73
2023/04/01 03:46:20;;;;;;;17.85;13.98;;;;;;;;;;10187661;28;20054;-73
2023/04/01 03:51:14;;;;;;;15.75;12.60;;;;;;;;;;10178381;28;20412;-72
2023/04/01 03:56:07;;;;;;;20.70;13.73;;;;;;;;;;10178683;28;20109;-73
2023/04/01 04:01:01;;;;;;;21.63;16.25;;;;;;;;;;10186031;28;20086;-73
2023/04/01 04:05:56;;;;;;;22.55;16.20;;;;;;;;;;10176642;28;20040;-73
2023/04/01 04:10:55;;;;;;;19.33;15.40;;;;;;;;;;10170250;28;20042;-73
2023/04/01 04:15:49;;;;;;;23.38;14.57;;;;;;;;;;10175629;28;20044;-71
2023/04/01 04:20:50;;;;;;;18.17;12.82;;;;;;;;;;10186192;28;20052;-71
2023/04/01 04:25:58;;;;;;;16.13;13.23;;;;;;;;;;10181637;28;20052;-71
2023/04/01 04:30:53;;;;;;;15.50;13.15;;;;;;;;;;10168775;28;20048;-72
2023/04/01 04:35:46;;;;;;;20.42;13.40;;;;;;;;;;10184636;28;20616;-73
2023/04/01 04:40:42;;;;;;;13.48;11.38;;;;;;;;;;10165430;28;20130;-73
2023/04/01 04:45:37;;;;;;;16.05;11.07;;;;;;;;;;10152922;28;20056;-73
2023/04/01 04:50:31;;;;;;;14.75;10.88;;;;;;;;;;10184886;28;20067;-73
2023/04/01 04:55:24;;;;;;;13.73;9.85;;;;;;;;;;10167115;28;20056;-73
2023/04/01 05:00:37;;;;;;;14.07;11.93;;;;;;;;;;10169308;28;20040;-73
2023/04/01 05:05:35;;;;;;;13.82;10.60;;;;;;;;;;10184475;28;20430;-73
2023/04/01 05:10:31;;;;;;;14.60;10.90;;;;;;;;;;10200847;28;20101;-73
2023/04/01 05:15:25;;;;;;;13.30;10.20;;;;;;;;;;10167674;28;20047;-74
2023/04/01 05:20:18;;;;;;;17.48;11.13;;;;;;;;;;10179450;28;20052;-75
2023/04/01 05:25:11;;;;;;;15.10;10.00;;;;;;;;;;10176368;28;20132;-75
2023/04/01 05:30:06;;;;;;;16.35;10.50;;;;;;;;;;10194536;28;20059;-73
2023/04/01 05:35:11;;;;;;;11.90;10.48;;;;;;;;;;10193155;28;20070;-74
2023/04/01 05:40:08;;;;;;;14.13;10.10;;;;;;;;;;10144684;28;20056;-76
2023/04/01 05:45:01;;;;;;;13.73;12.32;;;;;;;;;;10160284;28;20051;-73
2023/04/01 05:50:13;;;;;;;18.83;11.73;;;;;;;;;;10184368;28;20075;-68
2023/04/01 05:55:09;;;;;;;20.90;10.98;;;;;;;;;;10167014;28;20417;-69
2023/04/01 06:00:04;;;;;;;11.98;10.20;;;;;;;;;;10180446;28;20067;-73
2023/04/01 06:05:25;;;;;;;16.15;12.75;;;;;;;;;;10164189;28;20044;-70
2023/04/01 06:10:19;;;;;;;14.07;11.52;;;;;;;;;;10176537;28;20555;-72
2023/04/01 06:15:30;;;;;;;15.48;12.57;;;;;;;;;;10152280;28;20052;-72
2023/04/01 06:20:43;;;;;;;16.88;10.73;;;;;;;;;;10165497;28;20101;-77
2023/04/01 06:25:56;;;;;;;18.33;13.05;;;;;;;;;;10171784;28;20118;-77
2023/04/01 06:31:19;;;;;;;16.23;12.40;;;;;;;;;;10156141;28;20494;-77
2023/04/01 06:36:19;;;;;;;;;;;;;;;;;;10110914;28;20450;-72
2023/04/01 06:41:16;;;;;;;24.02;18.63;;;;;;;;;;10163959;28;20277;-78
2023/04/01 06:46:32;;;;;;;30.30;22.83;;;;;;;;;;10171176;28;20085;-79
2023/04/01 06:52:20;;;;;;;34.97;22.38;;;;;;;;;;10164431;28;20047;-78
2023/04/01 06:57:47;;;;;;;31.15;23.02;;;;;;;;;;10182764;28;20192;-76
2023/04/01 07:02:45;;;;;;;28.23;22.00;;;;;;;;;;10153422;28;20044;-75
2023/04/01 07:07:43;;;;;;;28.95;21.63;;;;;;;;;;10147984;28;20076;-76
2023/04/01 07:12:50;;;;;;;25.73;22.13;;;;;;;;;;10164448;28;20051;-71
2023/04/01 07:18:24;;;;;;;26.55;21.63;;;;;;;;;;10151863;28;20649;-73
2023/04/01 07:23:27;;;;;;;27.52;19.17;;;;;;;;;;10153618;28;20155;-74
2023/04/01 07:28:35;;;;;;;19.85;15.98;;;;;;;;;;10162975;28;20040;-70
2023/04/01 07:33:50;;;;;;;17.70;15.63;;;;;;;;;;10180523;28;20059;-70
2023/04/01 07:38:46;;;;;;;16.90;14.98;;;;;;;;;;10176825;28;20050;-72
2023/04/01 07:44:10;;;;;;;26.42;16.05;;;;;;;;;;10162101;28;20512;-80
2023/04/01 07:49:11;;;;;;;22.45;16.15;;;;;;;;;;10175531;28;20052;-82
2023/04/01 07:54:13;;;;;;;27.30;17.38;;;;;;;;;;10192768;28;20078;-77
2023/04/01 07:59:29;;;;;;;18.80;14.77;;;;;;;;;;10168801;28;20098;-72
2023/04/01 08:04:43;;;;;;;18.85;15.80;;;;;;;;;;10171169;28;20485;-74
2023/04/01 08:10:11;;;;;;;22.00;16.05;;;;;;;;;;10155919;28;20040;-75
2023/04/01 08:15:27;;;;;;;18.75;14.43;;;;;;;;;;10163991;28;20052;-76
2023/04/01 08:20:34;;;;;;;18.42;12.70;;;;;;;;;;10168222;28;20074;-77
2023/04/01 08:25:29;;;;;;;15.43;13.93;;;;;;;;;;10173828;28;20048;-74
2023/04/01 08:30:47;;;;;;;17.70;12.88;;;;;;;;;;10155534;28;20056;-74
2023/04/01 08:36:12;;;;;;;14.82;12.50;;;;;;;;;;10149982;28;20405;-74
2023/04/01 08:41:09;;;;;;;12.63;11.33;;;;;;;;;;10171638;28;20065;-74
2023/04/01 08:46:45;;;;;;;10.85;9.70;;;;;;;;;;10111427;28;20066;-74
2023/04/01 08:52:16;;;;;;;17.40;13.13;;;;;;;;;;10182306;28;20059;-74
2023/04/01 08:57:50;;;;;;;15.98;11.48;;;;;;;;;;10166678;28;20527;-74
2023/04/01 09:03:11;;;;;;;12.40;10.05;;;;;;;;;;10157135;28;20456;-75
2023/04/01 09:08:31;;;;;;;14.88;9.45;;;;;;;;;;10176662;28;20060;-75
2023/04/01 09:13:47;;;;;;;13.68;9.40;;;;;;;;;;10185491;28;20105;-76
2023/04/01 09:18:48;;;;;;;12.45;8.68;;;;;;;;;;10182030;28;20040;-76
2023/04/01 09:23:53;;;;;;;9.98;8.80;;;;;;;;;;10182706;28;20044;-76
2023/04/01 09:28:51;;;;;;;14.18;8.93;;;;;;;;;;10165982;28;20051;-76
2023/04/01 09:34:06;;;;;;;10.95;9.45;;;;;;;;;;10183524;28;20123;-76
2023/04/01 09:39:46;;;;;;;10.30;8.27;;;;;;;;;;10190871;28;20071;-75
2023/04/01 09:45:00;;;;;;;9.40;8.43;;;;;;;;;;10164799;28;20062;-76
2023/04/01 09:50:03;;;;;;;9.23;8.32;;;;;;;;;;10189580;28;20135;-77
2023/04/01 09:55:52;;;;;;;7.95;7.15;;;;;;;;;;10186011;28;20074;-77
2023/04/01 10:01:24;;;;;;;9.50;7.18;;;;;;;;;;10009377;28;20493;-77
2023/04/01 10:06:29;;;;;;;9.73;7.18;;;;;;;;;;10141258;28;20083;-77
2023/04/01 10:11:49;;;;;;;10.98;6.90;;;;;;;;;;10187950;28;20052;-77
2023/04/01 10:16:48;;;;;;;5.95;5.38;;;;;;;;;;10167345;28;20055;-78
2023/04/01 10:22:00;;;;;;;8.88;6.03;;;;;;;;;;10172977;28;20051;-78
2023/04/01 10:27:16;;;;;;;6.93;6.05;;;;;;;;;;10152701;28;20083;-78
2023/04/01 10:33:06;;;;;;;5.90;4.93;;;;;;;;;;10182060;28;20062;-78
2023/04/01 10:38:28;;;;;;;5.82;5.13;;;;;;;;;;10187911;28;20040;-78
2023/04/01 10:43:33;;;;;;;8.25;5.30;;;;;;;;;;10152073;28;20056;-77
2023/04/01 10:48:54;;;;;;;6.13;4.82;;;;;;;;;;10155446;28;20052;-78
2023/04/01 10:53:58;;;;;;;5.80;5.05;;;;;;;;;;10179981;28;20048;-78
2023/04/01 10:59:54;;;;;;;8.88;5.10;;;;;;;;;;10171281;28;20411;-78
2023/04/01 11:05:35;;;;;;;6.60;5.35;;;;;;;;;;10187880;28;20055;-77
2023/04/01 11:10:51;;;;;;;6.75;5.38;;;;;;;;;;10183902;28;20056;-77
2023/04/01 11:15:59;;;;;;;8.18;5.78;;;;;;;;;;10165637;28;20079;-80
2023/04/01 11:21:25;;;;;;;7.65;5.93;;;;;;;;;;10180476;28;20070;-78
2023/04/01 11:26:44;;;;;;;5.25;4.03;;;;;;;;;;10166980;28;20139;-76
2023/04/01 11:32:14;;;;;;;9.15;4.93;;;;;;;;;;10154153;28;20072;-74
2023/04/01 11:37:37;;;;;;;7.20;4.57;;;;;;;;;;10156712;28;20056;-74
2023/04/01 11:43:24;;;;;;;6.82;3.78;;;;;;;;;;10164474;28;20067;-74
2023/04/01 11:49:03;;;;;;;9.95;4.25;;;;;;;;;;10185412;28;20493;-74
2023/04/01 11:54:33;;;;;;;3.67;1.65;;;;;;;;;;10168721;28;20109;-75
2023/04/01 11:59:59;;;;;;;2.45;1.50;;;;;;;;;;10162820;28;21480;-75
2023/04/01 12:05:34;;;;;;;5.25;1.73;;;;;;;;;;10175846;28;20048;-74
2023/04/01 12:10:55;;;;;;;2.53;2.03;;;;;;;;;;10157365;28;20062;-74
2023/04/01 12:16:04;;;;;;;7.13;2.15;;;;;;;;;;10172070;28;20040;-73
2023/04/01 12:21:11;;;;;;;0.95;0.68;;;;;;;;;;10185184;28;20090;-73
2023/04/01 12:26:35;;;;;;;1.13;0.80;;;;;;;;;;10165928;28;20052;-73
2023/04/01 12:31:40;;;;;;;3.13;0.98;;;;;;;;;;10183127;28;20523;-73
2023/04/01 12:36:45;;;;;;;5.40;1.17;;;;;;;;;;10182996;28;20048;-73
2023/04/01 12:41:57;;;;;;;1.27;0.70;;;;;;;;;;10182682;28;20405;-73
2023/04/01 12:47:00;;;;;;;0.82;0.68;;;;;;;;;;10181707;28;20044;-73
2023/04/01 12:52:09;;;;;;;1.00;0.60;;;;;;;;;;10170168;28;20053;-74
2023/04/01 12:57:28;;;;;;;0.70;0.60;;;;;;;;;;10181122;28;20162;-73
2023/04/01 13:02:49;;;;;;;1.35;0.60;;;;;;;;;;10183195;28;20048;-74
2023/04/01 13:07:53;;;;;;;2.78;0.47;;;;;;;;;;10183822;28;20094;-74
2023/04/01 13:13:29;;;;;;;1.17;1.08;;;;;;;;;;10174301;28;20109;-77
2023/04/01 13:19:09;;;;;;;0.30;0.30;;;;;;;;;;10010391;28;20549;-74
2023/04/01 13:24:31;;;;;;;0.80;0.40;;;;;;;;;;10152814;28;20056;-74
2023/04/01 13:29:33;;;;;;;0.45;0.20;;;;;;;;;;10154587;28;20416;-77
2023/04/01 13:34:52;;;;;;;0.50;0.30;;;;;;;;;;10175007;28;20056;-75
2023/04/01 13:40:15;;;;;;;0.68;0.20;;;;;;;;;;10183428;28;20052;-75
2023/04/01 13:45:18;;;;;;;0.20;0.13;;;;;;;;;;10170812;28;20154;-75
2023/04/01 13:50:46;;;;;;;0.52;0.30;;;;;;;;;;10187055;28;20051;-76
2023/04/01 13:56:03;;;;;;;0.30;0.30;;;;;;;;;;10033161;28;20691;-76
2023/04/01 14:00:56;;;;;;;;;;;;;;;;;;10187410;28;20052;-76
2023/04/01 14:06:09;;;;;;;0.68;0.30;;;;;;;;;;10191825;28;19955;-76
2023/04/01 14:11:27;;;;;;;1.55;0.28;;;;;;;;;;10191615;28;20056;-78
2023/04/01 14:16:53;;;;;;;0.25;0.25;;;;;;;;;;10183996;28;20048;-78
2023/04/01 14:22:23;;;;;;;0.45;0.20;;;;;;;;;;10171078;28;20055;-78
2023/04/01 14:27:24;;;;;;;10.13;0.95;;;;;;;;;;10191066;28;20119;-78
2023/04/01 14:32:35;;;;;;;0.20;0.20;;;;;;;;;;10190447;28;20060;-78
2023/04/01 14:38:10;;;;;;;2.03;0.20;;;;;;;;;;10178216;28;20089;-78
2023/04/01 14:43:23;;;;;;;0.65;0.30;;;;;;;;;;10175479;28;20052;-79
2023/04/01 14:48:53;;;;;;;2.85;0.30;;;;;;;;;;10102117;28;20061;-78
2023/04/01 14:54:06;;;;;;;2.63;0.30;;;;;;;;;;10096092;28;20110;-79
2023/04/01 14:59:15;;;;;;;1.95;0.40;;;;;;;;;;10097513;28;20104;-79
2023/04/01 15:04:28;;;;;;;1.10;0.30;;;;;;;;;;10102826;28;20123;-79
2023/04/01 15:09:38;;;;;;;2.88;0.50;;;;;;;;;;10100184;28;20068;-79
2023/04/01 15:15:10;;;;;;;0.57;0.40;;;;;;;;;;10104959;28;20048;-79
2023/04/01 15:20:17;;;;;;;1.00;0.40;;;;;;;;;;10108314;28;20114;-79
2023/04/01 15:25:42;;;;;;;1.95;0.40;;;;;;;;;;10098190;28;20445;-77
2023/04/01 15:30:59;;;;;;;3.03;0.30;;;;;;;;;;10099810;28;20048;-79
2023/04/01 15:36:18;;;;;;;3.13;0.28;;;;;;;;;;10107204;28;20090;-78
2023/04/01 15:41:43;;;;;;;0.90;0.50;;;;;;;;;;10106262;28;20041;-78
2023/04/01 15:46:48;;;;;;;0.85;0.30;;;;;;;;;;10109644;28;20064;-78
2023/04/01 15:51:53;;;;;;;1.15;0.60;;;;;;;;;;10179802;28;20052;-80
2023/04/01 15:57:14;;;;;;;0.43;0.25;;;;;;;;;;10174753;28;20082;-75
2023/04/01 16:02:20;;;;;;;0.43;0.30;;;;;;;;;;10175699;28;20547;-76
2023/04/01 16:07:40;;;;;;;0.73;0.30;;;;;;;;;;10187068;28;20131;-75
2023/04/01 16:12:51;;;;;;;0.55;0.30;;;;;;;;;;10178790;28;20048;-78
2023/04/01 16:17:50;;;;;;;4.93;0.80;;;;;;;;;;10185145;28;20056;-79
2023/04/01 16:22:52;;;;;;;0.75;0.30;;;;;;;;;;10184874;28;20036;-78
2023/04/01 16:28:14;;;;;;;0.30;0.30;;;;;;;;;;10170413;28;20051;-79
2023/04/01 16:33:23;;;;;;;1.55;0.45;;;;;;;;;;10185380;28;20055;-79
2023/04/01 16:38:36;;;;;;;2.95;1.10;;;;;;;;;;10164805;28;20083;-78
2023/04/01 16:43:36;;;;;;;1.42;0.43;;;;;;;;;;10185873;28;20044;-78
2023/04/01 16:48:45;;;;;;;0.85;0.50;;;;;;;;;;10185363;28;20063;-78
2023/04/01 16:53:50;;;;;;;1.42;0.70;;;;;;;;;;10175030;28;20727;-77
2023/04/01 16:59:06;;;;;;;2.97;0.90;;;;;;;;;;10167917;28;20052;-77
2023/04/01 17:04:27;;;;;;;4.03;0.80;;;;;;;;;;10184907;28;20389;-77
2023/04/01 17:09:40;;;;;;;4.22;0.90;;;;;;;;;;10163850;28;20409;-78
2023/04/01 17:14:35;;;;;;;1.20;0.65;;;;;;;;;;10184878;28;20128;-78
2023/04/01 17:19:51;;;;;;;0.60;0.60;;;;;;;;;;10185615;28;20048;-78
2023/04/01 17:25:08;;;;;;;2.35;0.88;;;;;;;;;;10193250;28;20048;-76
2023/04/01 17:30:34;;;;;;;4.18;2.10;;;;;;;;;;10193309;28;20051;-76
2023/04/01 17:35:32;;;;;;;6.10;5.50;;;;;;;;;;10108389;28;20140;-78
2023/04/01 17:41:01;;;;;;;2.00;1.30;;;;;;;;;;10185720;28;20048;-78
2023/04/01 17:45:55;;;;;;;9.05;1.65;;;;;;;;;;10192647;28;20093;-78
2023/04/01 17:50:58;;;;;;;3.05;1.40;;;;;;;;;;10190748;28;20047;-77
2023/04/01 17:56:05;;;;;;;1.83;1.30;;;;;;;;;;10188394;28;20130;-78
2023/04/01 18:01:18;;;;;;;1.35;1.08;;;;;;;;;;10182650;28;20055;-79
2023/04/01 18:06:20;;;;;;;2.20;1.70;;;;;;;;;;10191427;28;20052;-76
2023/04/01 18:11:20;;;;;;;6.15;1.40;;;;;;;;;;10191627;28;20074;-77
2023/04/01 18:16:47;;;;;;;2.28;1.38;;;;;;;;;;10190865;28;20060;-78
2023/04/01 18:21:52;;;;;;;10.57;1.33;;;;;;;;;;10172495;28;20048;-74
2023/04/01 18:27:11;;;;;;;1.63;1.10;;;;;;;;;;10180327;28;20044;-69
2023/04/01 18:32:10;;;;;;;1.55;1.05;;;;;;;;;;10164378;28;20048;-69
2023/04/01 18:37:19;;;;;;;5.55;1.90;;;;;;;;;;10165073;28;20044;-69
2023/04/01 18:42:30;;;;;;;4.43;1.70;;;;;;;;;;10178732;28;20040;-70
2023/04/01 18:47:38;;;;;;;4.10;1.70;;;;;;;;;;10177973;28;20051;-71
2023/04/01 18:52:36;;;;;;;10.13;2.20;;;;;;;;;;10180280;28;20098;-75
2023/04/01 18:57:53;;;;;;;9.50;2.38;;;;;;;;;;10151684;28;20040;-75
2023/04/01 19:02:54;;;;;;;4.88;1.67;;;;;;;;;;10180809;28;20060;-78
2023/04/01 19:07:50;;;;;;;7.07;1.55;;;;;;;;;;10178681;28;20446;-73
2023/04/01 19:12:59;;;;;;;5.75;1.50;;;;;;;;;;10163042;28;20079;-71
2023/04/01 19:18:13;;;;;;;5.43;1.77;;;;;;;;;;10178826;28;20105;-70
2023/04/01 19:23:11;;;;;;;5.55;1.75;;;;;;;;;;10180892;28;20143;-73
2023/04/01 19:28:22;;;;;;;2.17;1.20;;;;;;;;;;10178320;28;20054;-71
2023/04/01 19:33:35;;;;;;;2.28;1.40;;;;;;;;;;10158324;28;20105;-72
2023/04/01 19:39:09;;;;;;;4.07;2.05;;;;;;;;;;10173448;28;20048;-71
2023/04/01 19:44:23;;;;;;;5.57;1.40;;;;;;;;;;10141874;28;20090;-71
2023/04/01 19:49:24;;;;;;;2.58;1.55;;;;;;;;;;10146256;28;20044;-71
2023/04/01 19:54:29;;;;;;;2.60;1.50;;;;;;;;;;10176899;28;20512;-71
2023/04/01 19:59:42;;;;;;;6.13;1.83;;;;;;;;;;10165516;28;20048;-71
2023/04/01 20:04:42;;;;;;;4.57;1.40;;;;;;;;;;10170890;28;20051;-72
2023/04/01 20:09:38;;;;;;;3.78;1.35;;;;;;;;;;10159906;28;20144;-71
2023/04/01 20:14:55;;;;;;;2.30;1.35;;;;;;;;;;10169167;28;20044;-72
2023/04/01 20:20:03;;;;;;;9.43;2.03;;;;;;;;;;10153049;28;20040;-73
2023/04/01 20:25:06;;;;;;;4.80;2.17;;;;;;;;;;10167394;28;20048;-73
2023/04/01 20:30:37;;;;;;;8.35;1.98;;;;;;;;;;10159649;28;20054;-73
2023/04/01 20:35:36;;;;;;;12.40;1.88;;;;;;;;;;10169249;28;20048;-72
2023/04/01 20:40:36;;;;;;;4.93;1.92;;;;;;;;;;10173264;28;20454;-72
2023/04/01 20:45:55;;;;;;;7.05;1.45;;;;;;;;;;10167419;28;20505;-72
2023/04/01 20:51:15;;;;;;;14.47;2.53;;;;;;;;;;10073477;28;20124;-71
2023/04/01 20:56:30;;;;;;;5.72;1.58;;;;;;;;;;10148466;28;20052;-74
2023/04/01 21:01:51;;;;;;;8.77;2.45;;;;;;;;;;10177826;28;20190;-74
2023/04/01 21:07:19;;;;;;;11.15;3.38;;;;;;;;;;10177444;28;20091;-73
2023/04/01 21:12:19;;;;;;;6.72;2.00;;;;;;;;;;10174602;28;20052;-73
2023/04/01 21:17:12;;;;;;;3.78;2.47;;;;;;;;;;10147645;28;20049;-74
2023/04/01 21:22:28;;;;;;;3.15;2.38;;;;;;;;;;10178789;28;20044;-74
2023/04/01 21:27:51;;;;;;;4.80;1.55;;;;;;;;;;10180265;28;20619;-73
2023/04/01 21:32:45;;;;;;;2.65;1.40;;;;;;;;;;10182035;28;20044;-74
2023/04/01 21:37:41;;;;;;;6.22;1.40;;;;;;;;;;10183197;28;20089;-74
2023/04/01 21:42:37;;;;;;;3.97;2.00;;;;;;;;;;10164837;28;20055;-72
2023/04/01 21:47:46;;;;;;;4.88;1.40;;;;;;;;;;10198473;28;20059;-72
2023/04/01 21:52:52;;;;;;;4.10;1.30;;;;;;;;;;10198489;28;20059;-73
2023/04/01 21:57:47;;;;;;;3.55;1.88;;;;;;;;;;10191499;28;20091;-72
2023/04/01 22:03:00;;;;;;;3.07;1.30;;;;;;;;;;10197105;28;20064;-71
2023/04/01 22:08:15;;;;;;;3.42;1.10;;;;;;;;;;10192164;28;20072;-71
2023/04/01 22:13:20;;;;;;;7.65;6.28;;;;;;;;;;10173243;28;20105;-71
2023/04/01 22:18:29;;;;;;;3.38;1.88;;;;;;;;;;10179565;28;20059;-73
2023/04/01 22:23:22;;;;;;;;;;;;;;;;;;10183239;28;20048;-71
2023/04/01 22:28:38;;;;;;;3.67;1.80;;;;;;;;;;10190362;28;19920;-71
2023/04/01 22:33:37;;;;;;;4.40;1.58;;;;;;;;;;10178291;28;20064;-70
2023/04/01 22:38:57;;;;;;;10.05;2.38;;;;;;;;;;10190750;28;20075;-71
2023/04/01 22:43:55;;;;;;;2.97;1.48;;;;;;;;;;10179482;28;20059;-70
2023/04/01 22:48:53;;;;;;;4.40;2.55;;;;;;;;;;10180114;28;20044;-70
2023/04/01 22:54:02;;;;;;;6.53;1.95;;;;;;;;;;10179723;28;20159;-77
2023/04/01 22:59:35;;;;;;;4.60;1.40;;;;;;;;;;10182810;28;20036;-73
2023/04/01 23:04:36;;;;;;;6.80;2.05;;;;;;;;;;10170249;28;20148;-73
2023/04/01 23:09:31;;;;;;;6.57;1.55;;;;;;;;;;10169141;28;20124;-74
2023/04/01 23:14:57;;;;;;;11.32;1.80;;;;;;;;;;10169204;28;20040;-74
2023/04/01 23:20:28;;;;;;;3.38;1.50;;;;;;;;;;10177781;28;20047;-75
2023/04/01 23:25:20;;;;;;;3.22;1.48;;;;;;;;;;10180689;28;20039;-74
2023/04/01 23:30:49;;;;;;;3.60;1.65;;;;;;;;;;10176201;28;20500;-74
2023/04/01 23:36:09;;;;;;;7.15;1.77;;;;;;;;;;10174175;28;20047;-74
2023/04/01 23:41:04;;;;;;;3.70;1.65;;;;;;;;;;10173530;28;20459;-75
2023/04/01 23:46:00;;;;;;;4.05;1.50;;;;;;;;;;10153556;28;20548;-73
2023/04/01 23:50:54;;;;;;;6.35;1.75;;;;;;;;;;10178036;28;20093;-75
2023/04/01 23:55:46;;;;;;;2.70;1.50;;;;;;;;;;10176297;28;20052;-74
